Time;durP1;ratioP1;P1;durP2;ratioP2;P2;SDS_P1;SDS_P2;PMS_P1;PMS_P2;Temp;Humidity;BMP_temperature;BMP_pressure;BME280_temperature;BME280_humidity;BME280_pressure;Samples;Min_cycle;Max_cycle;Signal;HPM_P1;HPM_P2
2022/11/24 00:02:14;;;;;;;11.17;3.57;;;11.90;91.00;;;;;;5006918;28;20595;-96
2022/11/24 00:05:26;;;;;;;11.63;2.87;;;11.90;91.10;;;;;;5011944;28;20272;-96
2022/11/24 00:20:41;;;;;;;12.37;3.13;;;11.80;91.60;;;;;;5008376;28;20550;-96
2022/11/24 00:26:29;;;;;;;15.37;3.47;;;11.80;91.70;;;;;;5011529;28;20202;-96
2022/11/24 00:54:31;;;;;;;11.23;3.10;;;12.00;92.30;;;;;;4995137;28;20217;-96
2022/11/24 01:08:03;;;;;;;11.23;3.47;;;12.00;92.20;;;;;;4979249;28;20213;-96
2022/11/24 01:10:39;;;;;;;11.07;3.07;;;12.00;92.10;;;;;;4976047;28;20218;-96
2022/11/24 01:20:25;;;;;;;12.03;3.17;;;12.10;92.10;;;;;;4988881;28;20203;-95
2022/11/24 01:23:23;;;;;;;16.73;4.07;;;12.10;92.10;;;;;;4988379;28;20229;-96
2022/11/24 01:26:36;;;;;;;16.17;4.03;;;12.00;92.10;;;;;;4991773;28;20232;-96
2022/11/24 01:32:41;;;;;;;10.63;2.87;;;12.10;92.30;;;;;;5029599;28;20205;-96
2022/11/24 01:35:27;;;;;;;13.73;3.90;;;12.00;92.20;;;;;;5020727;28;20201;-96
2022/11/24 01:38:12;;;;;;;9.73;3.47;;;12.00;92.40;;;;;;5011960;28;20257;-96
2022/11/24 01:43:31;;;;;;;9.57;3.33;;;12.10;92.50;;;;;;5033186;28;20234;-96
2022/11/24 01:46:33;;;;;;;15.00;4.27;;;12.00;92.50;;;;;;5026039;28;20225;-96
2022/11/24 01:49:18;;;;;;;15.03;3.97;;;12.00;92.60;;;;;;5032371;28;20201;-95
2022/11/24 01:51:52;;;;;;;13.77;3.87;;;12.00;92.50;;;;;;5028905;28;20270;-95
2022/11/24 01:54:48;;;;;;;11.63;3.40;;;12.00;92.60;;;;;;5020626;28;20220;-96
2022/11/24 01:57:24;;;;;;;9.40;3.07;;;12.00;92.60;;;;;;5020750;28;20256;-96
2022/11/24 02:00:01;;;;;;;8.60;2.77;;;12.00;92.40;;;;;;5017822;28;20236;-96
2022/11/24 02:02:35;;;;;;;6.57;1.90;;;12.00;92.20;;;;;;5023968;28;20554;-96
2022/11/24 02:05:12;;;;;;;9.27;2.53;;;11.90;92.10;;;;;;5020170;28;20186;-96
2022/11/24 02:07:57;;;;;;;7.40;2.17;;;12.00;92.10;;;;;;5020188;28;20232;-96
2022/11/24 02:10:36;;;;;;;7.53;2.07;;;11.90;92.10;;;;;;5017770;28;20248;-96
2022/11/24 02:13:27;;;;;;;9.93;3.10;;;11.90;92.10;;;;;;5018210;28;20243;-96
2022/11/24 02:16:00;;;;;;;9.57;2.50;;;11.90;92.00;;;;;;5017729;28;20201;-96
2022/11/24 02:18:29;;;;;;;6.70;2.27;;;11.80;92.00;;;;;;5008060;28;20263;-96
2022/11/24 02:20:58;;;;;;;8.17;2.50;;;11.90;92.10;;;;;;4997701;28;20206;-96
2022/11/24 02:23:39;;;;;;;12.23;3.70;;;11.80;92.10;;;;;;5002762;28;20213;-96
2022/11/24 02:26:32;;;;;;;10.63;3.23;;;11.80;92.20;;;;;;5034424;28;20201;-96
2022/11/24 02:29:12;;;;;;;12.13;2.47;;;11.80;92.20;;;;;;5020122;28;20209;-96
2022/11/24 02:31:53;;;;;;;5.97;1.63;;;11.80;92.20;;;;;;5019469;28;20333;-96
2022/11/24 02:34:30;;;;;;;7.40;2.20;;;11.70;92.10;;;;;;5018766;28;20205;-96
2022/11/24 02:37:09;;;;;;;11.73;3.10;;;11.70;92.10;;;;;;5003771;28;20249;-96
2022/11/24 02:39:48;;;;;;;5.67;1.47;;;11.70;92.10;;;;;;5010616;28;20213;-96
2022/11/24 02:45:09;;;;;;;9.07;2.73;;;11.60;92.00;;;;;;5020899;28;20281;-96
2022/11/24 02:47:42;;;;;;;6.97;1.97;;;11.60;92.10;;;;;;5023108;28;20228;-95
2022/11/24 02:50:18;;;;;;;8.53;2.13;;;11.60;91.90;;;;;;5023264;28;20336;-96
2022/11/24 02:56:14;;;;;;;4.13;1.40;;;11.50;91.90;;;;;;5024263;28;20577;-96
2022/11/24 02:59:00;;;;;;;5.33;1.37;;;11.50;91.90;;;;;;5017484;28;20302;-96
2022/11/24 03:02:02;;;;;;;7.60;2.13;;;11.50;91.90;;;;;;5025256;28;20204;-96
2022/11/24 03:04:38;;;;;;;9.03;3.67;;;11.40;91.90;;;;;;5023746;28;20223;-96
2022/11/24 03:07:23;;;;;;;8.47;2.67;;;11.40;91.90;;;;;;5017732;28;20221;-96
2022/11/24 03:09:51;;;;;;;9.90;2.77;;;11.30;91.90;;;;;;5002107;28;20217;-96
2022/11/24 03:12:52;;;;;;;6.10;2.00;;;11.30;92.00;;;;;;5000790;28;20202;-96
2022/11/24 03:15:28;;;;;;;12.20;2.70;;;11.30;92.10;;;;;;5010131;28;20197;-96
2022/11/24 03:18:00;;;;;;;8.97;2.37;;;11.30;92.20;;;;;;5021342;28;20227;-96
2022/11/24 03:20:29;;;;;;;6.63;2.10;;;11.20;92.30;;;;;;5029624;28;20205;-95
2022/11/24 03:23:04;;;;;;;8.80;2.33;;;11.20;92.50;;;;;;5014398;28;20717;-96
2022/11/24 03:25:35;;;;;;;10.03;2.13;;;11.20;92.70;;;;;;5007712;28;20281;-96
2022/11/24 03:28:03;;;;;;;13.50;3.30;;;11.20;92.80;;;;;;5017370;28;20281;-95
2022/11/24 03:30:53;;;;;;;6.17;1.77;;;11.20;92.70;;;;;;5020718;28;20204;-96
2022/11/24 03:33:37;;;;;;;17.63;3.63;;;11.20;92.90;;;;;;5007555;28;20210;-96
2022/11/24 03:36:30;;;;;;;10.73;2.40;;;11.10;92.90;;;;;;5013989;28;20219;-96
2022/11/24 03:42:31;;;;;;;7.80;2.27;;;11.20;93.10;;;;;;5027824;28;20209;-96
2022/11/24 03:45:34;;;;;;;5.63;1.77;;;11.20;93.20;;;;;;5006714;28;20220;-96
2022/11/24 03:48:10;;;;;;;6.93;2.10;;;11.10;93.00;;;;;;5024943;28;20205;-96
2022/11/24 03:54:17;;;;;;;22.83;5.63;;;11.10;93.20;;;;;;5015324;28;20286;-96
2022/11/24 03:59:45;;;;;;;8.00;2.17;;;11.20;93.40;;;;;;5034892;28;20236;-96
2022/11/24 04:02:23;;;;;;;10.23;2.17;;;11.20;93.30;;;;;;5023177;28;20202;-96
2022/11/24 04:05:02;;;;;;;9.10;3.10;;;11.20;93.30;;;;;;5021892;28;20205;-96
2022/11/24 04:07:33;;;;;;;15.20;3.47;;;11.10;93.30;;;;;;5021856;28;20221;-96
2022/11/24 04:10:21;;;;;;;12.07;3.63;;;11.20;93.30;;;;;;5020116;28;20212;-95
2022/11/24 04:13:19;;;;;;;6.30;2.03;;;11.20;93.30;;;;;;5020289;28;20225;-96
2022/11/24 04:15:56;;;;;;;8.30;2.90;;;11.20;93.30;;;;;;5020981;28;20256;-96
2022/11/24 04:18:47;;;;;;;12.07;3.17;;;11.20;93.10;;;;;;5034819;28;20220;-96
2022/11/24 04:21:31;;;;;;;11.47;2.87;;;11.20;93.20;;;;;;5025807;28;20200;-96
2022/11/24 04:24:11;;;;;;;10.73;2.70;;;11.20;93.10;;;;;;5025787;28;20205;-96
2022/11/24 04:29:49;;;;;;;8.90;2.67;;;11.10;93.20;;;;;;5023876;28;20300;-96
2022/11/24 04:32:29;;;;;;;10.73;2.73;;;11.20;93.20;;;;;;5023916;28;20232;-96
2022/11/24 04:35:18;;;;;;;9.47;2.63;;;11.20;93.30;;;;;;5021501;28;20289;-96
2022/11/24 04:37:56;;;;;;;8.63;2.73;;;11.20;93.30;;;;;;5003685;28;20252;-96
2022/11/24 04:40:57;;;;;;;14.10;3.47;;;11.20;93.40;;;;;;5003631;28;20190;-96
2022/11/24 04:43:54;;;;;;;9.50;2.63;;;11.10;93.40;;;;;;5024224;28;20220;-96
2022/11/24 04:49:33;;;;;;;7.43;1.83;;;11.10;93.30;;;;;;5004036;28;20252;-96
2022/11/24 04:55:27;;;;;;;13.97;3.80;;;11.20;93.40;;;;;;5026042;28;20209;-96
2022/11/24 04:58:08;;;;;;;9.87;2.33;;;11.20;93.30;;;;;;5004695;28;20654;-96
2022/11/24 05:04:47;;;;;;;10.90;3.13;;;11.20;93.20;;;;;;5000804;28;20256;-96
2022/11/24 05:08:09;;;;;;;11.53;3.40;;;11.20;93.20;;;;;;5017872;28;20232;-96
2022/11/24 05:11:38;;;;;;;12.13;2.77;;;11.10;93.10;;;;;;5003530;28;20206;-96
2022/11/24 05:46:15;;;;;;;11.33;3.40;;;11.10;92.80;;;;;;5024911;28;20900;-96
2022/11/24 05:49:18;;;;;;;;;;;;;;;;;;;;;
2022/11/24 05:52:07;;;;;;;8.40;2.23;;;11.10;92.80;;;;;;4999463;28;20210;-96
2022/11/24 05:55:01;;;;;;;13.20;3.87;;;11.10;92.70;;;;;;5004090;28;20240;-96
2022/11/24 05:58:00;;;;;;;9.40;2.57;;;11.10;92.70;;;;;;5002973;28;20300;-96
2022/11/24 06:00:33;;;;;;;9.10;3.03;;;11.00;92.60;;;;;;4995892;28;20933;-96
2022/11/24 06:03:14;;;;;;;11.97;3.50;;;11.00;92.50;;;;;;5005096;28;20205;-96
2022/11/24 06:05:59;;;;;;;8.50;2.57;;;11.00;92.40;;;;;;5003816;28;20718;-96
2022/11/24 06:11:25;;;;;;;10.90;2.93;;;11.00;92.30;;;;;;4998284;28;20201;-96
2022/11/24 06:14:25;;;;;;;13.60;2.80;;;11.00;92.30;;;;;;5000050;28;20208;-96
2022/11/24 06:17:04;;;;;;;8.83;2.67;;;10.90;92.20;;;;;;4987225;28;20214;-96
2022/11/24 06:19:38;;;;;;;14.60;3.50;;;10.90;92.20;;;;;;4995850;28;20304;-96
2022/11/24 06:22:14;;;;;;;13.13;3.70;;;10.90;92.20;;;;;;4981570;28;20206;-96
2022/11/24 06:24:46;;;;;;;10.47;3.33;;;10.90;92.20;;;;;;4981081;28;20210;-96
2022/11/24 06:27:26;;;;;;;18.67;4.47;;;10.90;92.10;;;;;;4976664;28;20674;-96
2022/11/24 06:30:08;;;;;;;12.10;3.77;;;10.80;92.10;;;;;;4997903;28;20206;-96
2022/11/24 06:32:51;;;;;;;15.73;3.60;;;10.80;92.10;;;;;;5003688;28;20221;-96
2022/11/24 06:35:46;;;;;;;11.20;2.90;;;10.80;92.10;;;;;;5004084;28;20243;-96
2022/11/24 06:38:24;;;;;;;13.77;3.83;;;10.80;92.10;;;;;;5000824;28;20257;-96
2022/11/24 06:41:26;;;;;;;13.40;3.33;;;10.70;92.10;;;;;;5001088;28;20214;-96
2022/11/24 06:44:10;;;;;;;15.73;4.87;;;10.70;92.10;;;;;;5000227;28;20201;-96
2022/11/24 06:46:54;;;;;;;13.33;3.73;;;10.70;92.00;;;;;;5002149;28;20230;-96
2022/11/24 06:49:56;;;;;;;13.63;3.93;;;10.70;92.00;;;;;;4983390;28;20543;-96
2022/11/24 06:52:26;;;;;;;13.23;3.27;;;10.60;92.00;;;;;;4994962;28;20206;-96
2022/11/24 06:55:02;;;;;;;13.43;3.77;;;10.60;91.90;;;;;;5000254;28;20625;-96
2022/11/24 06:57:44;;;;;;;16.73;4.47;;;10.60;92.00;;;;;;5001588;28;20213;-96
2022/11/24 07:00:22;;;;;;;17.77;4.40;;;10.50;92.00;;;;;;5002084;28;20234;-96
2022/11/24 07:02:51;;;;;;;7.40;2.83;;;10.60;92.00;;;;;;4997143;28;20209;-96
2022/11/24 07:05:21;;;;;;;12.53;3.40;;;10.50;92.00;;;;;;4993706;28;20216;-96
2022/11/24 07:07:51;;;;;;;10.97;3.43;;;10.50;92.00;;;;;;4993372;28;20202;-96
2022/11/24 07:10:20;;;;;;;15.77;4.03;;;10.50;92.10;;;;;;4992372;28;20280;-96
2022/11/24 07:12:47;;;;;;;15.10;3.90;;;10.50;92.10;;;;;;4991818;28;20199;-95
2022/11/24 07:15:16;;;;;;;15.97;3.87;;;10.40;92.10;;;;;;4980273;28;20228;-96
2022/11/24 07:17:43;;;;;;;11.17;2.60;;;10.40;92.10;;;;;;4985655;28;20229;-96
2022/11/24 07:20:15;;;;;;;15.70;3.93;;;10.50;92.20;;;;;;4995214;28;20213;-94
2022/11/24 07:22:43;;;;;;;11.20;3.80;;;10.40;92.10;;;;;;4996359;28;20635;-95
2022/11/24 07:25:13;;;;;;;14.73;4.33;;;10.40;92.10;;;;;;4996647;28;20210;-95
2022/11/24 07:27:43;;;;;;;16.63;4.07;;;10.40;92.10;;;;;;4997737;28;20638;-95
2022/11/24 07:30:12;;;;;;;11.87;3.57;;;10.40;92.10;;;;;;4996983;28;20289;-94
2022/11/24 07:32:43;;;;;;;7.57;3.17;;;10.30;92.00;;;;;;4999891;28;20221;-95
2022/11/24 07:35:11;;;;;;;13.83;3.83;;;10.30;92.00;;;;;;5001108;28;20206;-94
2022/11/24 07:37:39;;;;;;;13.23;3.50;;;10.30;92.00;;;;;;5012298;28;20209;-95
2022/11/24 07:40:09;;;;;;;18.60;5.37;;;10.30;92.20;;;;;;5000028;28;20246;-95
2022/11/24 07:42:36;;;;;;;18.03;3.97;;;10.30;92.20;;;;;;4977324;28;20278;-95
2022/11/24 07:45:06;;;;;;;18.00;5.03;;;10.30;92.20;;;;;;4985589;28;20277;-93
2022/11/24 07:47:39;;;;;;;15.10;3.40;;;10.20;92.30;;;;;;4991120;28;20239;-94
2022/11/24 07:50:11;;;;;;;15.27;3.90;;;10.20;92.40;;;;;;4991638;28;20217;-94
2022/11/24 07:52:41;;;;;;;15.87;3.77;;;10.20;92.40;;;;;;4992751;28;20209;-95
2022/11/24 07:55:32;;;;;;;17.43;4.33;;;10.20;92.40;;;;;;4992027;28;20282;-95
2022/11/24 07:58:03;;;;;;;17.97;5.10;;;10.20;92.50;;;;;;4990488;28;20232;-95
2022/11/24 08:00:34;;;;;;;16.33;4.67;;;10.20;92.80;;;;;;4991597;28;20210;-95
2022/11/24 08:03:01;;;;;;;17.00;4.17;;;10.10;92.60;;;;;;4991151;28;20201;-93
2022/11/24 08:05:28;;;;;;;18.17;4.57;;;10.20;92.60;;;;;;4990630;28;20601;-96
2022/11/24 08:08:00;;;;;;;14.37;4.13;;;10.10;92.70;;;;;;4988916;28;20205;-94
2022/11/24 08:10:27;;;;;;;17.73;3.77;;;10.20;92.80;;;;;;4991559;28;20300;-95
2022/11/24 08:12:55;;;;;;;14.97;4.03;;;10.20;92.90;;;;;;4991871;28;20239;-95
2022/11/24 08:15:25;;;;;;;20.37;4.93;;;10.10;93.00;;;;;;4992809;28;20201;-95
2022/11/24 08:18:02;;;;;;;17.00;4.27;;;10.20;93.20;;;;;;4994371;28;20236;-95
2022/11/24 08:20:30;;;;;;;12.83;3.67;;;10.20;93.20;;;;;;4993664;28;20676;-96
2022/11/24 08:23:01;;;;;;;16.50;4.80;;;10.10;93.30;;;;;;4993344;28;20202;-95
2022/11/24 08:25:31;;;;;;;14.50;3.60;;;10.20;93.50;;;;;;4992808;28;20649;-95
2022/11/24 08:28:04;;;;;;;12.63;3.70;;;10.20;93.60;;;;;;4993641;28;20854;-95
2022/11/24 08:30:34;;;;;;;20.10;5.17;;;10.20;93.60;;;;;;4993132;28;20269;-95
2022/11/24 08:33:21;;;;;;;14.60;4.40;;;10.20;93.60;;;;;;4993848;28;20237;-94
2022/11/24 08:35:51;;;;;;;13.60;3.67;;;10.20;93.80;;;;;;4994115;28;20216;-94
2022/11/24 08:38:18;;;;;;;15.53;4.47;;;10.20;93.70;;;;;;4992408;28;20218;-94
2022/11/24 08:40:46;;;;;;;23.37;6.70;;;10.20;93.80;;;;;;4987089;28;20285;-93
2022/11/24 08:43:14;;;;;;;14.47;3.43;;;10.30;94.00;;;;;;4990879;28;20646;-94
2022/11/24 08:45:41;;;;;;;10.93;3.17;;;10.30;94.10;;;;;;4992097;28;20267;-95
2022/11/24 08:48:09;;;;;;;16.77;4.00;;;10.30;94.00;;;;;;4990713;28;20227;-95
2022/11/24 08:50:40;;;;;;;19.17;4.50;;;10.30;94.20;;;;;;4990809;28;20244;-94
2022/11/24 08:53:10;;;;;;;13.60;4.67;;;10.40;94.40;;;;;;4992771;28;20232;-93
2022/11/24 08:55:38;;;;;;;12.43;3.17;;;10.40;94.40;;;;;;4996697;28;20252;-96
2022/11/24 08:58:16;;;;;;;12.10;3.33;;;10.50;94.50;;;;;;4996235;28;20289;-96
2022/11/24 09:00:45;;;;;;;17.33;3.97;;;10.50;94.60;;;;;;4995495;28;20201;-96
2022/11/24 09:03:17;;;;;;;12.37;4.00;;;10.50;94.40;;;;;;4996808;28;20624;-96
2022/11/24 09:05:48;;;;;;;15.07;3.53;;;10.60;94.60;;;;;;4977555;28;20587;-95
2022/11/24 09:08:21;;;;;;;11.87;3.53;;;10.60;94.60;;;;;;4975365;28;20199;-96
2022/11/24 09:10:50;;;;;;;14.70;3.87;;;10.60;94.60;;;;;;4978418;28;20206;-95
2022/11/24 09:13:19;;;;;;;10.20;3.33;;;10.70;94.70;;;;;;4999526;28;20201;-96
2022/11/24 09:15:48;;;;;;;11.53;3.57;;;10.70;94.80;;;;;;4999086;28;20651;-95
2022/11/24 09:18:16;;;;;;;15.70;4.17;;;10.80;94.80;;;;;;4995541;28;20218;-96
2022/11/24 09:20:44;;;;;;;9.20;3.03;;;10.80;94.80;;;;;;5003998;28;20202;-95
2022/11/24 09:23:14;;;;;;;13.83;4.10;;;10.90;94.90;;;;;;5005694;28;20202;-96
2022/11/24 09:25:47;;;;;;;10.33;3.20;;;10.90;94.90;;;;;;5006114;28;20202;-96
2022/11/24 09:28:25;;;;;;;15.73;4.07;;;10.90;95.00;;;;;;5007544;28;20210;-95
2022/11/24 09:31:04;;;;;;;12.97;3.10;;;11.00;95.00;;;;;;5006301;28;20547;-95
2022/11/24 09:33:36;;;;;;;12.97;3.83;;;11.10;95.10;;;;;;5005261;28;20544;-95
2022/11/24 09:36:05;;;;;;;9.20;3.03;;;11.10;95.00;;;;;;5003376;28;20792;-95
2022/11/24 09:38:36;;;;;;;10.33;3.50;;;11.10;94.90;;;;;;5002678;28;20222;-94
2022/11/24 09:41:35;;;;;;;11.27;2.93;;;11.20;95.00;;;;;;5005148;28;20206;-96
2022/11/24 09:44:11;;;;;;;9.00;3.13;;;11.20;95.10;;;;;;5005781;28;20222;-95
2022/11/24 09:46:52;;;;;;;14.87;3.67;;;11.30;95.10;;;;;;5008267;28;20245;-95
2022/11/24 09:49:29;;;;;;;15.40;4.60;;;11.40;95.10;;;;;;5017330;28;20198;-96
2022/11/24 09:52:13;;;;;;;11.80;3.47;;;11.40;94.90;;;;;;5014981;28;20268;-95
2022/11/24 09:54:50;;;;;;;13.77;3.73;;;11.50;95.00;;;;;;4996630;28;20214;-96
2022/11/24 09:57:21;;;;;;;15.70;4.10;;;11.50;94.90;;;;;;4990874;28;20715;-96
2022/11/24 10:00:11;;;;;;;8.10;3.30;;;11.50;94.90;;;;;;5008124;28;20214;-95
2022/11/24 10:02:40;;;;;;;10.43;3.27;;;11.60;95.00;;;;;;5007153;28;20202;-95
2022/11/24 10:05:15;;;;;;;18.60;4.37;;;11.60;94.80;;;;;;5001931;28;20205;-95
2022/11/24 10:08:00;;;;;;;10.40;3.30;;;11.70;94.90;;;;;;4989688;28;20212;-96
2022/11/24 10:10:38;;;;;;;10.33;4.13;;;11.70;94.90;;;;;;4999881;28;20210;-95
2022/11/24 10:13:23;;;;;;;11.90;3.90;;;11.80;95.10;;;;;;4999479;28;20212;-95
2022/11/24 10:16:06;;;;;;;14.47;3.23;;;11.80;94.80;;;;;;4998289;28;20702;-94
2022/11/24 10:18:57;;;;;;;14.30;3.70;;;11.90;94.90;;;;;;4999817;28;20577;-96
2022/11/24 10:21:43;;;;;;;22.67;6.80;;;11.90;94.80;;;;;;4994972;28;20275;-96
2022/11/24 10:24:49;;;;;;;16.07;4.63;;;12.00;94.80;;;;;;4982202;28;20226;-96
2022/11/24 10:27:30;;;;;;;14.20;4.37;;;12.00;94.80;;;;;;4984555;28;20206;-96
2022/11/24 10:30:02;;;;;;;12.37;3.53;;;12.10;94.80;;;;;;5000464;28;20611;-96
2022/11/24 10:32:37;;;;;;;13.73;3.47;;;12.10;94.60;;;;;;4999629;28;20206;-94
2022/11/24 10:35:16;;;;;;;17.73;4.03;;;12.20;94.70;;;;;;5000125;28;20220;-95
2022/11/24 10:37:54;;;;;;;19.20;4.97;;;12.30;94.70;;;;;;5000286;28;20233;-93
2022/11/24 10:40:36;;;;;;;11.10;4.00;;;12.30;94.70;;;;;;4994525;28;20278;-93
2022/11/24 10:43:10;;;;;;;16.40;4.17;;;12.40;94.70;;;;;;4995014;28;20278;-95
2022/11/24 10:45:41;;;;;;;16.03;4.97;;;12.40;94.70;;;;;;4998936;28;20227;-94
2022/11/24 10:48:17;;;;;;;21.17;5.13;;;12.50;94.70;;;;;;4997355;28;20305;-95
2022/11/24 10:50:45;;;;;;;15.00;4.30;;;12.50;94.80;;;;;;4994678;28;20218;-94
2022/11/24 10:53:18;;;;;;;18.67;4.80;;;12.60;94.80;;;;;;4995919;28;20243;-93
2022/11/24 10:56:03;;;;;;;12.03;3.83;;;12.70;94.70;;;;;;4995936;28;20218;-94
2022/11/24 10:58:34;;;;;;;14.20;3.40;;;12.70;94.60;;;;;;4983397;28;20209;-94
2022/11/24 11:01:19;;;;;;;14.30;3.53;;;12.80;94.70;;;;;;4974356;28;20211;-94
2022/11/24 11:03:49;;;;;;;17.27;4.43;;;12.90;95.30;;;;;;4987878;28;20237;-94
2022/11/24 11:06:25;;;;;;;16.47;4.67;;;13.00;95.00;;;;;;4994330;28;20207;-95
2022/11/24 11:09:18;;;;;;;10.90;3.30;;;13.10;95.00;;;;;;4992786;28;20276;-94
2022/11/24 11:11:49;;;;;;;14.00;4.07;;;13.20;95.10;;;;;;4994265;28;20203;-94
2022/11/24 11:14:34;;;;;;;15.90;4.70;;;13.30;95.00;;;;;;4994244;28;20694;-95
2022/11/24 11:17:03;;;;;;;16.43;3.63;;;13.40;94.70;;;;;;4994399;28;20202;-92
2022/11/24 11:19:36;;;;;;;26.13;4.77;;;13.60;94.70;;;;;;4993234;28;20313;-94
2022/11/24 11:22:40;;;;;;;18.03;3.40;;;13.70;94.20;;;;;;5005677;28;20227;-95
2022/11/24 11:25:28;;;;;;;16.57;4.07;;;13.80;93.70;;;;;;4998665;28;20213;-94
2022/11/24 11:28:19;;;;;;;15.00;4.57;;;13.90;93.20;;;;;;4995272;28;20209;-93
2022/11/24 11:30:59;;;;;;;14.83;5.20;;;14.00;93.50;;;;;;4994246;28;20209;-95
2022/11/24 11:33:35;;;;;;;11.60;3.73;;;14.10;93.20;;;;;;4997750;28;20211;-95
2022/11/24 11:36:10;;;;;;;12.03;3.20;;;14.20;92.90;;;;;;4997773;28;20192;-93
2022/11/24 11:38:41;;;;;;;13.57;3.43;;;14.20;92.70;;;;;;4994773;28;20200;-94
2022/11/24 11:41:22;;;;;;;17.77;4.27;;;14.30;92.60;;;;;;4995985;28;20226;-94
2022/11/24 11:44:01;;;;;;;16.07;3.67;;;14.30;92.00;;;;;;4995639;28;20232;-94
2022/11/24 11:46:35;;;;;;;17.90;4.70;;;14.40;91.80;;;;;;4995394;28;20706;-96
2022/11/24 11:49:22;;;;;;;17.97;3.53;;;14.40;91.70;;;;;;5003671;28;20216;-96
2022/11/24 11:52:14;;;;;;;16.77;4.77;;;14.40;91.70;;;;;;4996727;28;20631;-94
2022/11/24 11:55:04;;;;;;;18.43;4.70;;;14.40;91.40;;;;;;4994940;28;20217;-95
2022/11/24 11:57:44;;;;;;;13.60;4.37;;;14.40;91.50;;;;;;4993704;28;20207;-93
2022/11/24 12:00:16;;;;;;;16.90;4.40;;;14.40;91.20;;;;;;4995361;28;20326;-95
2022/11/24 12:03:19;;;;;;;12.47;3.27;;;14.40;91.40;;;;;;4988570;28;20318;-93
2022/11/24 12:05:58;;;;;;;14.93;3.73;;;14.40;90.80;;;;;;4993226;28;20211;-95
2022/11/24 12:08:40;;;;;;;10.10;3.17;;;14.40;91.00;;;;;;4986652;28;20256;-95
2022/11/24 12:11:14;;;;;;;12.27;3.40;;;14.40;91.00;;;;;;4995430;28;20206;-95
2022/11/24 12:14:03;;;;;;;9.67;3.33;;;14.40;91.90;;;;;;4995617;28;20212;-93
2022/11/24 12:16:44;;;;;;;13.27;3.37;;;14.50;92.00;;;;;;4997681;28;20204;-95
2022/11/24 12:19:42;;;;;;;17.33;4.23;;;14.60;91.70;;;;;;4998502;28;20373;-94
2022/11/24 12:22:38;;;;;;;16.37;3.50;;;14.70;91.60;;;;;;5002115;28;20210;-96
2022/11/24 12:25:26;;;;;;;15.10;3.97;;;14.80;91.20;;;;;;5003929;28;20277;-95
2022/11/24 12:28:11;;;;;;;14.33;4.33;;;14.90;91.10;;;;;;5000703;28;20202;-95
2022/11/24 12:30:54;;;;;;;16.27;4.67;;;15.00;91.10;;;;;;5004168;28;20221;-96
2022/11/24 12:33:37;;;;;;;19.67;6.27;;;15.20;91.40;;;;;;5002611;28;20200;-95
2022/11/24 12:36:22;;;;;;;15.83;4.53;;;15.30;90.70;;;;;;5006831;28;20186;-95
2022/11/24 12:39:00;;;;;;;15.53;4.03;;;15.40;90.40;;;;;;5004429;28;20217;-95
2022/11/24 12:41:46;;;;;;;15.43;4.67;;;15.60;90.00;;;;;;4998608;28;20221;-92
2022/11/24 12:44:37;;;;;;;14.73;4.23;;;15.70;88.70;;;;;;4984755;28;20256;-95
2022/11/24 12:47:15;;;;;;;15.17;3.27;;;15.80;85.20;;;;;;4994340;28;20647;-95
2022/11/24 12:49:57;;;;;;;15.53;4.33;;;15.80;85.20;;;;;;4994935;28;20274;-95
2022/11/24 12:52:30;;;;;;;13.77;4.50;;;15.90;84.90;;;;;;4991542;28;20220;-94
2022/11/24 12:55:01;;;;;;;20.70;5.47;;;15.90;84.80;;;;;;4979627;28;20203;-95
2022/11/24 12:57:57;;;;;;;16.83;4.23;;;16.00;84.00;;;;;;4976874;28;20210;-95
2022/11/24 13:00:51;;;;;;;15.03;3.87;;;16.00;83.20;;;;;;4973975;28;20902;-95
2022/11/24 13:03:35;;;;;;;14.30;4.37;;;16.00;83.30;;;;;;4974454;28;20980;-95
2022/11/24 13:06:21;;;;;;;16.90;3.87;;;16.00;81.80;;;;;;4976321;28;20573;-96
2022/11/24 13:08:58;;;;;;;13.60;3.53;;;16.00;81.70;;;;;;4976281;28;20199;-95
2022/11/24 13:11:49;;;;;;;16.10;3.90;;;16.00;81.40;;;;;;4990062;28;20291;-95
2022/11/24 13:14:34;;;;;;;20.63;4.93;;;16.00;81.20;;;;;;4990669;28;20234;-96
2022/11/24 13:17:06;;;;;;;10.63;3.17;;;16.00;80.50;;;;;;5001369;28;20206;-96
2022/11/24 13:19:41;;;;;;;12.70;3.63;;;16.00;81.10;;;;;;4999600;28;20229;-96
2022/11/24 13:22:27;;;;;;;16.93;4.43;;;15.90;79.70;;;;;;4992572;28;20237;-96
2022/11/24 13:25:17;;;;;;;12.33;3.17;;;15.90;79.30;;;;;;4993844;28;20210;-96
2022/11/24 13:27:49;;;;;;;16.60;4.83;;;15.90;79.10;;;;;;4995576;28;20206;-96
2022/11/24 13:30:55;;;;;;;18.50;4.33;;;15.80;80.10;;;;;;4989678;28;20224;-96
2022/11/24 13:33:33;;;;;;;15.17;5.13;;;15.70;79.90;;;;;;4983528;28;20231;-96
2022/11/24 13:36:39;;;;;;;17.30;4.70;;;15.70;79.90;;;;;;4998734;28;20209;-95
2022/11/24 13:39:20;;;;;;;16.03;4.50;;;15.70;79.70;;;;;;4970807;28;20214;-95
2022/11/24 13:42:14;;;;;;;13.70;4.10;;;15.60;80.20;;;;;;4986106;28;20208;-95
2022/11/24 13:44:53;;;;;;;15.17;3.97;;;15.60;79.70;;;;;;4991474;28;20701;-92
2022/11/24 13:47:49;;;;;;;14.43;5.17;;;15.50;79.40;;;;;;4991378;28;20202;-93
2022/11/24 13:50:54;;;;;;;24.97;6.10;;;15.50;79.20;;;;;;4992129;28;20224;-93
2022/11/24 13:53:31;;;;;;;17.20;5.23;;;15.50;80.30;;;;;;4993402;28;20212;-93
2022/11/24 13:56:20;;;;;;;22.40;5.13;;;15.40;80.20;;;;;;4997742;28;20211;-92
2022/11/24 13:58:50;;;;;;;14.60;4.50;;;15.40;79.60;;;;;;5004165;28;20526;-93
2022/11/24 14:01:27;;;;;;;21.03;6.10;;;15.30;79.90;;;;;;4995584;28;20296;-93
2022/11/24 14:04:23;;;;;;;15.50;4.60;;;15.30;79.80;;;;;;5001420;28;20289;-93
2022/11/24 14:07:01;;;;;;;22.67;5.93;;;15.30;79.80;;;;;;5003677;28;20546;-93
2022/11/24 14:09:35;;;;;;;21.83;5.90;;;15.20;80.10;;;;;;4995163;28;20671;-93
2022/11/24 14:12:15;;;;;;;18.43;4.40;;;15.20;80.40;;;;;;5004448;28;20201;-93
2022/11/24 14:14:48;;;;;;;11.73;4.47;;;15.20;80.00;;;;;;5008371;28;20216;-96
2022/11/24 14:17:23;;;;;;;12.30;4.47;;;15.10;80.00;;;;;;5011553;28;20200;-94
2022/11/24 14:19:52;;;;;;;20.10;4.27;;;15.10;80.10;;;;;;5008377;28;20227;-93
2022/11/24 14:22:22;;;;;;;16.90;4.40;;;15.00;80.40;;;;;;5006165;28;20209;-93
2022/11/24 14:24:55;;;;;;;19.57;5.27;;;15.00;80.70;;;;;;5003794;28;20208;-95
2022/11/24 14:27:29;;;;;;;15.53;4.97;;;15.00;80.50;;;;;;5003322;28;20204;-93
2022/11/24 14:30:02;;;;;;;14.07;4.67;;;14.90;80.20;;;;;;5002719;28;20208;-95
2022/11/24 14:32:30;;;;;;;14.73;3.60;;;14.80;80.10;;;;;;5002183;28;20212;-94
2022/11/24 14:34:59;;;;;;;15.13;4.17;;;14.80;80.50;;;;;;5000960;28;20566;-93
2022/11/24 14:37:28;;;;;;;18.90;4.53;;;14.80;80.60;;;;;;5008365;28;20208;-93
2022/11/24 14:39:55;;;;;;;16.77;5.13;;;14.60;80.50;;;;;;5002363;28;20194;-93
2022/11/24 14:42:26;;;;;;;18.23;5.17;;;14.60;80.50;;;;;;5000206;28;20217;-93
2022/11/24 14:44:59;;;;;;;16.00;4.43;;;14.60;80.40;;;;;;5010930;28;20315;-93
2022/11/24 14:47:31;;;;;;;15.37;4.50;;;14.50;80.90;;;;;;5014665;28;20196;-94
2022/11/24 14:50:09;;;;;;;19.43;5.73;;;14.50;81.10;;;;;;5015812;28;20219;-94
2022/11/24 14:52:45;;;;;;;18.57;4.70;;;14.40;81.20;;;;;;4998051;28;20215;-93
2022/11/24 14:55:25;;;;;;;15.23;4.13;;;14.40;81.00;;;;;;5001605;28;20220;-93
2022/11/24 14:57:53;;;;;;;18.13;5.10;;;14.30;81.70;;;;;;4999561;28;20252;-92
2022/11/24 15:00:31;;;;;;;11.83;4.13;;;14.30;82.00;;;;;;5004206;28;20208;-94
2022/11/24 15:03:15;;;;;;;21.00;4.40;;;14.30;81.90;;;;;;5017451;28;20193;-94
2022/11/24 15:05:54;;;;;;;17.37;4.87;;;14.20;82.50;;;;;;5006878;28;20212;-95
2022/11/24 15:08:23;;;;;;;14.63;4.90;;;14.20;82.40;;;;;;5007548;28;20193;-94
2022/11/24 15:10:57;;;;;;;18.77;4.80;;;14.20;83.20;;;;;;5017674;28;20180;-93
2022/11/24 15:13:26;;;;;;;19.83;5.93;;;14.20;82.90;;;;;;5017541;28;20182;-94
2022/11/24 15:15:58;;;;;;;19.00;5.10;;;14.20;83.20;;;;;;5016196;28;20195;-94
2022/11/24 15:18:39;;;;;;;17.10;4.57;;;14.10;83.30;;;;;;5007221;28;20221;-94
2022/11/24 15:21:13;;;;;;;15.00;5.17;;;14.10;83.70;;;;;;5006618;28;20239;-94
2022/11/24 15:24:03;;;;;;;16.10;3.70;;;14.20;83.70;;;;;;5005864;28;20204;-94
2022/11/24 15:26:33;;;;;;;15.07;4.33;;;14.10;83.80;;;;;;5008306;28;20204;-94
2022/11/24 15:29:03;;;;;;;22.93;4.30;;;14.10;83.70;;;;;;5006501;28;20197;-95
2022/11/24 15:31:32;;;;;;;13.73;4.37;;;14.10;84.00;;;;;;5004323;28;20240;-94
2022/11/24 15:33:59;;;;;;;18.87;6.00;;;14.10;84.00;;;;;;5008153;28;20221;-94
2022/11/24 15:36:32;;;;;;;15.57;4.33;;;14.10;84.00;;;;;;5002742;28;20230;-93
2022/11/24 15:39:05;;;;;;;15.63;4.93;;;14.10;84.10;;;;;;4985717;28;20192;-92
2022/11/24 15:41:33;;;;;;;20.80;5.93;;;14.10;84.10;;;;;;4993104;28;20284;-94
2022/11/24 15:44:00;;;;;;;23.70;5.97;;;14.00;84.00;;;;;;4995437;28;20324;-95
2022/11/24 15:46:38;;;;;;;20.87;5.73;;;14.00;84.00;;;;;;4996565;28;20212;-94
2022/11/24 15:49:05;;;;;;;15.33;4.43;;;14.00;84.00;;;;;;5007490;28;20649;-93
2022/11/24 15:51:33;;;;;;;12.43;3.80;;;14.00;84.10;;;;;;5008303;28;20215;-94